createdAt,value
2023-03-27T00:00:39.882Z,4.28
2023-03-27T00:01:39.902Z,4.25
2023-03-27T00:02:39.983Z,4.31
2023-03-27T00:03:40.071Z,4.30
2023-03-27T00:04:39.925Z,4.22
2023-03-27T00:05:39.931Z,4.22
2023-03-27T00:06:39.944Z,4.27
2023-03-27T00:07:39.953Z,4.24
2023-03-27T00:08:39.965Z,4.22
2023-03-27T00:09:39.976Z,4.14
2023-03-27T00:10:39.982Z,4.18
2023-03-27T00:11:39.991Z,4.07
2023-03-27T00:12:40.002Z,4.04
2023-03-27T00:13:42.659Z,4.16
2023-03-27T00:14:40.028Z,4.04
2023-03-27T00:15:40.030Z,4.09
2023-03-27T00:16:40.074Z,4.02
2023-03-27T00:17:40.090Z,4.03
2023-03-27T00:18:40.059Z,4.10
2023-03-27T00:19:40.074Z,4.04
2023-03-27T00:20:40.112Z,4.07
2023-03-27T00:21:40.089Z,4.06
2023-03-27T00:22:40.101Z,4.03
2023-03-27T00:23:40.108Z,4.06
2023-03-27T00:24:40.121Z,4.06
2023-03-27T00:25:40.127Z,4.02
2023-03-27T00:26:40.135Z,3.95
2023-03-27T00:27:40.149Z,4.03
2023-03-27T00:28:40.160Z,3.94
2023-03-27T00:29:40.165Z,3.96
2023-03-27T00:30:40.198Z,3.94
2023-03-27T00:31:40.185Z,3.82
2023-03-27T00:32:40.227Z,3.81
2023-03-27T00:33:40.206Z,3.86
2023-03-27T00:34:40.213Z,3.91
2023-03-27T00:35:40.236Z,3.84
2023-03-27T00:36:40.232Z,3.78
2023-03-27T00:37:40.242Z,3.74
2023-03-27T00:38:40.254Z,3.67
2023-03-27T00:39:40.263Z,3.77
2023-03-27T00:40:40.352Z,3.71
2023-03-27T00:41:40.281Z,3.71
2023-03-27T00:42:40.297Z,3.70
2023-03-27T00:43:40.327Z,3.70
2023-03-27T00:44:40.309Z,3.76
2023-03-27T00:45:40.318Z,3.73
2023-03-27T00:46:40.394Z,3.63
2023-03-27T00:47:40.368Z,3.66
2023-03-27T00:48:40.350Z,3.73
2023-03-27T00:49:40.359Z,3.71
2023-03-27T00:50:40.373Z,3.61
2023-03-27T00:51:40.380Z,3.58
2023-03-27T00:52:40.383Z,3.64
2023-03-27T00:53:40.393Z,3.68
2023-03-27T00:54:40.449Z,3.55
2023-03-27T00:55:40.414Z,3.71
2023-03-27T00:56:40.450Z,3.49
2023-03-27T00:57:40.432Z,3.50
2023-03-27T00:58:40.443Z,3.68
2023-03-27T00:59:40.454Z,3.61
2023-03-27T01:00:40.497Z,3.64
2023-03-27T01:01:40.526Z,3.52
2023-03-27T01:02:40.590Z,3.50
2023-03-27T01:03:40.545Z,3.49
2023-03-27T01:04:40.501Z,3.52
2023-03-27T01:05:40.509Z,3.46
2023-03-27T01:06:40.514Z,3.49
2023-03-27T01:07:40.521Z,3.49
2023-03-27T01:08:40.534Z,3.45
2023-03-27T01:09:40.543Z,3.45
2023-03-27T01:10:40.556Z,3.48
2023-03-27T01:11:40.562Z,3.52
2023-03-27T01:12:40.574Z,3.48
2023-03-27T01:13:40.580Z,3.50
2023-03-27T01:14:40.595Z,3.48
2023-03-27T01:15:40.639Z,3.43
2023-03-27T01:16:40.612Z,3.43
2023-03-27T01:17:40.647Z,3.45
2023-03-27T01:18:40.633Z,3.45
2023-03-27T01:19:40.639Z,3.36
2023-03-27T01:20:40.644Z,3.37
2023-03-27T01:21:40.658Z,3.46
2023-03-27T01:22:40.666Z,3.40
2023-03-27T01:23:58.818Z,3.36
2023-03-27T01:24:40.682Z,3.37
2023-03-27T01:25:40.703Z,3.31
2023-03-27T01:26:40.698Z,3.27
2023-03-27T01:27:40.707Z,3.30
2023-03-27T01:28:40.720Z,3.36
2023-03-27T01:29:40.727Z,3.27
2023-03-27T01:30:40.736Z,3.30
2023-03-27T01:31:40.783Z,3.24
2023-03-27T01:32:40.786Z,3.31
2023-03-27T01:33:40.764Z,3.16
2023-03-27T01:34:40.775Z,3.31
2023-03-27T01:35:40.805Z,3.21
2023-03-27T01:36:40.791Z,3.19
2023-03-27T01:37:40.801Z,3.26
2023-03-27T01:38:40.810Z,3.22
2023-03-27T01:39:40.834Z,3.19
2023-03-27T01:40:40.827Z,3.22
2023-03-27T01:41:40.838Z,3.21
2023-03-27T01:42:40.874Z,3.19
2023-03-27T01:43:40.857Z,3.29
2023-03-27T01:44:44.149Z,3.34
2023-03-27T01:45:40.875Z,3.21
2023-03-27T01:46:40.904Z,3.27
2023-03-27T01:47:40.937Z,3.27
2023-03-27T01:48:40.911Z,3.30
2023-03-27T01:49:40.911Z,3.24
2023-03-27T01:50:40.923Z,3.33
2023-03-27T01:51:40.929Z,3.31
2023-03-27T01:52:40.944Z,3.33
2023-03-27T01:53:40.949Z,3.24
2023-03-27T01:54:40.960Z,3.29
2023-03-27T01:55:40.967Z,3.27
2023-03-27T01:56:40.998Z,3.26
2023-03-27T01:57:48.925Z,3.29
2023-03-27T01:58:40.992Z,3.27
2023-03-27T01:59:41.009Z,3.26
2023-03-27T02:00:52.212Z,3.30
2023-03-27T02:01:41.100Z,3.37
2023-03-27T02:02:41.077Z,3.30
2023-03-27T02:03:41.066Z,3.33
2023-03-27T02:04:41.098Z,3.29
2023-03-27T02:05:41.058Z,3.30
2023-03-27T02:06:41.072Z,3.34
2023-03-27T02:07:41.087Z,3.26
2023-03-27T02:08:41.093Z,3.34
2023-03-27T02:09:41.096Z,3.33
2023-03-27T02:10:41.123Z,3.27
2023-03-27T02:11:41.127Z,3.29
2023-03-27T02:12:41.126Z,3.33
2023-03-27T02:13:41.131Z,3.27
2023-03-27T02:14:41.140Z,3.22
2023-03-27T02:15:41.150Z,3.24
2023-03-27T02:16:41.210Z,3.30
2023-03-27T02:17:41.204Z,3.30
2023-03-27T02:18:41.179Z,3.22
2023-03-27T02:19:41.188Z,3.21
2023-03-27T02:20:41.200Z,3.21
2023-03-27T02:21:41.208Z,3.26
2023-03-27T02:22:41.217Z,3.27
2023-03-27T02:23:41.234Z,3.29
2023-03-27T02:24:41.238Z,3.29
2023-03-27T02:25:41.247Z,3.29
2023-03-27T02:26:41.252Z,3.24
2023-03-27T02:27:41.269Z,3.26
2023-03-27T02:28:41.277Z,3.29
2023-03-27T02:29:41.287Z,3.24
2023-03-27T02:30:41.293Z,3.24
2023-03-27T02:31:41.389Z,3.19
2023-03-27T02:32:41.449Z,3.22
2023-03-27T02:33:41.315Z,3.16
2023-03-27T02:34:41.327Z,3.24
2023-03-27T02:35:41.363Z,3.22
2023-03-27T02:36:41.342Z,3.09
2023-03-27T02:37:41.359Z,3.09
2023-03-27T02:38:41.398Z,3.11
2023-03-27T02:39:41.386Z,3.09
2023-03-27T02:40:41.379Z,3.15
2023-03-27T02:41:41.391Z,3.15
2023-03-27T02:42:41.402Z,3.12
2023-03-27T02:43:41.408Z,3.09
2023-03-27T02:44:47.355Z,3.12
2023-03-27T02:45:41.468Z,3.05
2023-03-27T02:46:41.437Z,3.08
2023-03-27T02:47:41.462Z,3.01
2023-03-27T02:48:41.454Z,3.06
2023-03-27T02:49:41.463Z,2.91
2023-03-27T02:50:41.473Z,2.93
2023-03-27T02:51:41.480Z,2.94
2023-03-27T02:52:41.493Z,3.06
2023-03-27T02:53:41.522Z,2.97
2023-03-27T02:54:41.510Z,2.97
2023-03-27T02:55:41.520Z,2.91
2023-03-27T02:56:41.570Z,2.85
2023-03-27T02:57:41.541Z,2.80
2023-03-27T02:58:41.544Z,2.85
2023-03-27T02:59:41.553Z,2.85
2023-03-27T03:00:41.565Z,2.73
2023-03-27T03:01:41.636Z,2.80
2023-03-27T03:02:41.669Z,2.69
2023-03-27T03:03:41.590Z,2.72
2023-03-27T03:04:41.669Z,2.69
2023-03-27T03:05:41.608Z,2.75
2023-03-27T03:06:41.614Z,2.73
2023-03-27T03:07:41.630Z,2.72
2023-03-27T03:08:41.638Z,2.70
2023-03-27T03:09:41.649Z,2.70
2023-03-27T03:10:41.649Z,2.68
2023-03-27T03:11:41.661Z,2.72
2023-03-27T03:12:41.669Z,2.72
2023-03-27T03:13:41.685Z,2.68
2023-03-27T03:14:41.686Z,2.70
2023-03-27T03:15:41.695Z,2.68
2023-03-27T03:16:41.757Z,2.69
2023-03-27T03:17:41.746Z,2.73
2023-03-27T03:18:41.745Z,2.61
2023-03-27T03:19:41.739Z,2.68
2023-03-27T03:20:41.738Z,2.59
2023-03-27T03:21:41.748Z,2.62
2023-03-27T03:22:41.757Z,2.68
2023-03-27T03:23:41.769Z,2.64
2023-03-27T03:24:42.012Z,2.61
2023-03-27T03:25:41.779Z,2.61
2023-03-27T03:26:41.790Z,2.58
2023-03-27T03:27:41.797Z,2.62
2023-03-27T03:28:41.805Z,2.65
2023-03-27T03:29:41.818Z,2.59
2023-03-27T03:30:41.926Z,2.65
2023-03-27T03:31:41.834Z,2.68
2023-03-27T03:32:41.869Z,2.62
2023-03-27T03:33:41.852Z,2.64
2023-03-27T03:34:41.864Z,2.62
2023-03-27T03:35:41.868Z,2.61
2023-03-27T03:36:41.926Z,2.61
2023-03-27T03:37:41.889Z,2.62
2023-03-27T03:38:41.893Z,2.65
2023-03-27T03:39:41.904Z,2.64
2023-03-27T03:40:41.920Z,2.64
2023-03-27T03:41:41.919Z,2.65
2023-03-27T03:42:41.928Z,2.62
2023-03-27T03:43:41.936Z,2.68
2023-03-27T03:44:41.945Z,2.65
2023-03-27T03:45:41.950Z,2.68
2023-03-27T03:46:41.962Z,2.64
2023-03-27T03:47:42.043Z,2.59
2023-03-27T03:48:41.976Z,2.65
2023-03-27T03:49:41.987Z,2.58
2023-03-27T03:50:42.007Z,2.64
2023-03-27T03:51:42.012Z,2.62
2023-03-27T03:52:42.016Z,2.52
2023-03-27T03:53:42.024Z,2.55
2023-03-27T03:54:42.028Z,2.47
2023-03-27T03:55:42.042Z,2.54
2023-03-27T03:56:42.081Z,2.54
2023-03-27T03:57:42.068Z,2.36
2023-03-27T03:58:42.065Z,2.43
2023-03-27T03:59:42.073Z,2.43
2023-03-27T04:00:42.082Z,2.36
2023-03-27T04:01:42.134Z,2.40
2023-03-27T04:02:42.161Z,2.39
2023-03-27T04:03:42.287Z,2.36
2023-03-27T04:04:42.113Z,2.30
2023-03-27T04:05:42.118Z,2.21
2023-03-27T04:06:42.128Z,2.16
2023-03-27T04:07:42.163Z,2.18
2023-03-27T04:08:42.148Z,2.21
2023-03-27T04:09:42.155Z,2.18
2023-03-27T04:10:42.162Z,2.16
2023-03-27T04:11:42.172Z,2.05
2023-03-27T04:12:42.178Z,2.10
2023-03-27T04:13:42.187Z,2.14
2023-03-27T04:14:42.194Z,2.08
2023-03-27T04:15:42.231Z,2.03
2023-03-27T04:16:42.221Z,2.03
2023-03-27T04:17:42.342Z,1.92
2023-03-27T04:18:42.464Z,2.03
2023-03-27T04:19:42.239Z,1.97
2023-03-27T04:20:42.244Z,1.92
2023-03-27T04:21:42.282Z,1.89
2023-03-27T04:22:42.258Z,1.84
2023-03-27T04:23:42.270Z,1.92
2023-03-27T04:24:42.276Z,1.85
2023-03-27T04:25:42.325Z,1.84
2023-03-27T04:26:42.293Z,1.76
2023-03-27T04:27:42.304Z,1.75
2023-03-27T04:28:42.315Z,1.70
2023-03-27T04:29:42.320Z,1.71
2023-03-27T04:30:42.330Z,1.71
2023-03-27T04:31:42.380Z,1.63
2023-03-27T04:32:42.378Z,1.68
2023-03-27T04:33:42.358Z,1.67
2023-03-27T04:34:42.377Z,1.63
2023-03-27T04:35:42.408Z,1.63
2023-03-27T04:36:42.378Z,1.63
2023-03-27T04:37:42.391Z,1.64
2023-03-27T04:38:42.397Z,1.56
2023-03-27T04:39:42.406Z,1.53
2023-03-27T04:40:42.414Z,1.52
2023-03-27T04:41:42.433Z,1.50
2023-03-27T04:42:42.489Z,1.48
2023-03-27T04:43:42.439Z,1.49
2023-03-27T04:44:42.459Z,1.52
2023-03-27T04:45:42.458Z,1.52
2023-03-27T04:46:42.541Z,1.52
2023-03-27T04:47:42.550Z,1.48
2023-03-27T04:48:42.485Z,1.53
2023-03-27T04:49:42.485Z,1.48
2023-03-27T04:50:42.496Z,1.49
2023-03-27T04:51:42.506Z,1.52
2023-03-27T04:52:42.513Z,1.48
2023-03-27T04:53:42.522Z,1.52
2023-03-27T04:54:42.527Z,1.52
2023-03-27T04:55:42.540Z,1.45
2023-03-27T04:56:42.576Z,1.43
2023-03-27T04:57:42.559Z,1.45
2023-03-27T04:58:42.570Z,1.49
2023-03-27T04:59:42.572Z,1.45
2023-03-27T05:00:42.605Z,1.45
2023-03-27T05:01:42.641Z,1.50
2023-03-27T05:02:42.619Z,1.43
2023-03-27T05:03:42.649Z,1.43
2023-03-27T05:04:42.607Z,1.49
2023-03-27T05:05:42.614Z,1.36
2023-03-27T05:06:42.622Z,1.42
2023-03-27T05:07:42.628Z,1.36
2023-03-27T05:08:42.637Z,1.36
2023-03-27T05:09:42.652Z,1.34
2023-03-27T05:10:42.656Z,1.28
2023-03-27T05:11:42.666Z,1.34
2023-03-27T05:12:42.673Z,1.27
2023-03-27T05:13:42.676Z,1.31
2023-03-27T05:14:42.683Z,1.28
2023-03-27T05:15:42.692Z,1.30
2023-03-27T05:16:42.750Z,1.28
2023-03-27T05:17:42.764Z,1.28
2023-03-27T05:18:42.718Z,1.24
2023-03-27T05:19:42.723Z,1.22
2023-03-27T05:20:42.729Z,1.18
2023-03-27T05:21:42.738Z,1.21
2023-03-27T05:22:42.747Z,1.30
2023-03-27T05:23:42.755Z,1.16
2023-03-27T05:24:42.774Z,1.10
2023-03-27T05:25:42.778Z,1.18
2023-03-27T05:26:42.785Z,1.22
2023-03-27T05:27:42.790Z,1.18
2023-03-27T05:28:42.793Z,1.16
2023-03-27T05:29:46.763Z,1.14
2023-03-27T05:30:42.838Z,1.18
2023-03-27T05:31:42.818Z,1.13
2023-03-27T05:32:42.830Z,1.16
2023-03-27T05:33:42.832Z,1.04
2023-03-27T05:34:42.840Z,1.16
2023-03-27T05:35:42.890Z,1.09
2023-03-27T05:36:42.875Z,1.04
2023-03-27T05:37:42.864Z,1.10
2023-03-27T05:38:42.881Z,1.09
2023-03-27T05:39:42.889Z,1.03
2023-03-27T05:40:42.902Z,1.03
2023-03-27T05:41:42.902Z,1.06
2023-03-27T05:42:42.917Z,1.06
2023-03-27T05:43:42.915Z,1.04
2023-03-27T05:44:42.921Z,1.00
2023-03-27T05:45:42.967Z,1.09
2023-03-27T05:46:43.025Z,1.04
2023-03-27T05:47:42.971Z,1.06
2023-03-27T05:48:42.961Z,1.06
2023-03-27T05:49:42.983Z,1.06
2023-03-27T05:50:42.967Z,1.09
2023-03-27T05:51:46.884Z,1.06
2023-03-27T05:52:42.982Z,1.04
2023-03-27T05:53:43.004Z,1.14
2023-03-27T05:54:43.000Z,1.09
2023-03-27T05:55:43.014Z,1.20
2023-03-27T05:56:43.054Z,1.13
2023-03-27T05:57:43.021Z,1.07
2023-03-27T05:58:43.033Z,1.20
2023-03-27T05:59:43.041Z,1.18
2023-03-27T06:00:43.061Z,1.21
2023-03-27T06:01:43.058Z,1.12
2023-03-27T06:02:43.132Z,1.25
2023-03-27T06:03:43.205Z,1.20
2023-03-27T06:04:43.116Z,1.21
2023-03-27T06:05:43.088Z,1.24
2023-03-27T06:06:43.096Z,1.24
2023-03-27T06:07:43.590Z,1.38
2023-03-27T06:08:43.147Z,1.36
2023-03-27T06:09:43.119Z,1.42
2023-03-27T06:10:43.129Z,1.40
2023-03-27T06:11:43.151Z,1.45
2023-03-27T06:12:43.146Z,1.42
2023-03-27T06:13:43.153Z,1.52
2023-03-27T06:14:43.158Z,1.50
2023-03-27T06:15:43.326Z,1.60
2023-03-27T06:16:43.195Z,1.68
2023-03-27T06:17:43.222Z,1.78
2023-03-27T06:18:43.196Z,1.75
2023-03-27T06:19:43.200Z,1.84
2023-03-27T06:20:43.207Z,1.86
2023-03-27T06:21:43.219Z,1.84
2023-03-27T06:22:43.241Z,1.93
2023-03-27T06:23:43.234Z,1.95
2023-03-27T06:24:43.253Z,1.95
2023-03-27T06:25:43.247Z,1.98
2023-03-27T06:26:43.259Z,1.93
2023-03-27T06:27:43.267Z,1.92
2023-03-27T06:28:43.273Z,2.03
2023-03-27T06:29:43.294Z,2.00
2023-03-27T06:30:43.298Z,2.08
2023-03-27T06:31:43.343Z,2.12
2023-03-27T06:32:43.342Z,2.03
2023-03-27T06:33:43.318Z,2.07
2023-03-27T06:34:43.326Z,2.10
2023-03-27T06:35:43.343Z,2.14
2023-03-27T06:36:43.353Z,2.15
2023-03-27T06:37:43.374Z,2.22
2023-03-27T06:38:43.364Z,2.30
2023-03-27T06:39:43.377Z,2.37
2023-03-27T06:40:43.376Z,2.39
2023-03-27T06:41:43.383Z,2.52
2023-03-27T06:42:43.517Z,2.51
2023-03-27T06:43:43.404Z,2.62
2023-03-27T06:44:43.419Z,2.65
2023-03-27T06:45:43.464Z,2.70
2023-03-27T06:46:45.819Z,2.72
2023-03-27T06:47:53.698Z,2.82
2023-03-27T06:48:43.516Z,2.80
2023-03-27T06:49:43.456Z,2.94
2023-03-27T06:50:43.462Z,2.88
2023-03-27T06:51:43.476Z,2.97
2023-03-27T06:52:43.481Z,2.98
2023-03-27T06:53:43.490Z,2.97
2023-03-27T06:54:43.500Z,3.05
2023-03-27T06:55:43.509Z,3.09
2023-03-27T06:56:43.549Z,3.11
2023-03-27T06:57:43.532Z,3.03
2023-03-27T06:58:43.536Z,3.13
2023-03-27T06:59:43.588Z,3.13
2023-03-27T07:00:43.561Z,3.21
2023-03-27T07:01:43.637Z,3.24
2023-03-27T07:02:43.627Z,3.31
2023-03-27T07:03:43.584Z,3.30
2023-03-27T07:04:54.103Z,3.46
2023-03-27T07:05:43.660Z,3.50
2023-03-27T07:06:43.611Z,3.49
2023-03-27T07:07:43.620Z,3.50
2023-03-27T07:08:43.634Z,3.64
2023-03-27T07:09:43.649Z,3.61
2023-03-27T07:10:43.663Z,3.64
2023-03-27T07:11:43.667Z,3.70
2023-03-27T07:12:43.668Z,3.74
2023-03-27T07:13:43.689Z,3.76
2023-03-27T07:14:43.683Z,3.82
2023-03-27T07:15:43.705Z,3.78
2023-03-27T07:16:43.778Z,3.77
2023-03-27T07:17:48.890Z,3.86
2023-03-27T07:18:43.738Z,3.78
2023-03-27T07:19:43.737Z,3.70
2023-03-27T07:20:43.747Z,3.89
2023-03-27T07:21:43.769Z,3.86
2023-03-27T07:22:43.772Z,3.77
2023-03-27T07:23:43.775Z,3.86
2023-03-27T07:24:43.783Z,3.86
2023-03-27T07:25:43.793Z,3.89
2023-03-27T07:26:43.806Z,3.89
2023-03-27T07:27:43.820Z,3.88
2023-03-27T07:28:43.825Z,3.86
2023-03-27T07:29:43.837Z,4.03
2023-03-27T07:30:43.850Z,4.03
2023-03-27T07:31:56.983Z,4.06
2023-03-27T07:32:44.188Z,4.03
2023-03-27T07:33:43.990Z,4.21
2023-03-27T07:34:43.884Z,4.21
2023-03-27T07:35:43.942Z,4.18
2023-03-27T07:36:43.906Z,4.25
2023-03-27T07:37:43.915Z,4.24
2023-03-27T07:38:43.927Z,4.34
2023-03-27T07:39:43.942Z,4.27
2023-03-27T07:40:43.977Z,4.42
2023-03-27T07:41:43.958Z,4.48
2023-03-27T07:42:43.968Z,4.49
2023-03-27T07:43:43.980Z,4.48
2023-03-27T07:44:43.992Z,4.53
2023-03-27T07:45:44.034Z,4.50
2023-03-27T07:46:44.013Z,4.49
2023-03-27T07:47:44.038Z,4.49
2023-03-27T07:48:44.044Z,4.50
2023-03-27T07:49:44.044Z,4.57
2023-03-27T07:50:44.056Z,4.60
2023-03-27T07:51:44.068Z,4.50
2023-03-27T07:52:44.076Z,4.58
2023-03-27T07:53:44.090Z,4.61
2023-03-27T07:54:44.101Z,4.60
2023-03-27T07:55:44.110Z,4.58
2023-03-27T07:56:44.219Z,4.61
2023-03-27T07:58:44.179Z,4.63
2023-03-27T07:59:44.154Z,4.67
2023-03-27T08:00:44.164Z,4.61
2023-03-27T08:01:44.178Z,4.58
2023-03-27T08:02:44.228Z,4.53
2023-03-27T08:03:44.313Z,4.58
2023-03-27T08:04:44.316Z,4.64
2023-03-27T08:05:44.236Z,4.66
2023-03-27T08:06:44.236Z,4.60
2023-03-27T08:07:44.240Z,4.67
2023-03-27T08:08:44.252Z,4.63
2023-03-27T08:09:44.272Z,4.70
2023-03-27T08:10:44.275Z,4.60
2023-03-27T08:11:44.302Z,4.60
2023-03-27T08:12:44.295Z,4.70
2023-03-27T08:13:44.305Z,4.75
2023-03-27T08:14:44.320Z,4.74
2023-03-27T08:15:44.333Z,4.79
2023-03-27T08:16:44.371Z,4.84
2023-03-27T08:17:44.460Z,4.82
2023-03-27T08:18:44.368Z,4.86
2023-03-27T08:19:44.369Z,4.90
2023-03-27T08:20:44.382Z,4.84
2023-03-27T08:21:44.395Z,4.75
2023-03-27T08:22:44.402Z,4.71
2023-03-27T08:23:44.415Z,4.70
2023-03-27T08:24:44.423Z,4.89
2023-03-27T08:25:44.440Z,4.86
2023-03-27T08:26:44.453Z,4.82
2023-03-27T08:27:44.458Z,4.89
2023-03-27T08:28:44.471Z,4.95
2023-03-27T08:29:44.478Z,4.98
2023-03-27T08:30:44.553Z,4.92
2023-03-27T08:31:44.503Z,5.02
2023-03-27T08:32:44.618Z,4.94
2023-03-27T08:33:44.540Z,5.04
2023-03-27T08:34:44.534Z,5.07
2023-03-27T08:35:44.571Z,4.94
2023-03-27T08:36:44.561Z,5.00
2023-03-27T08:37:44.567Z,4.97
2023-03-27T08:38:44.579Z,5.04
2023-03-27T08:39:44.592Z,5.13
2023-03-27T08:40:44.602Z,5.13
2023-03-27T08:41:44.626Z,5.22
2023-03-27T08:42:44.627Z,5.26
2023-03-27T08:43:44.640Z,5.34
2023-03-27T08:44:44.648Z,5.34
2023-03-27T08:45:44.663Z,5.36
2023-03-27T08:46:44.725Z,5.51
2023-03-27T08:47:44.746Z,5.55
2023-03-27T08:48:44.749Z,5.38
2023-03-27T08:49:44.707Z,5.49
2023-03-27T08:50:44.719Z,5.40
2023-03-27T08:51:44.730Z,5.49
2023-03-27T08:52:44.742Z,5.54
2023-03-27T08:53:44.763Z,5.51
2023-03-27T08:54:44.776Z,5.46
2023-03-27T08:55:44.791Z,5.44
2023-03-27T08:56:44.820Z,5.49
2023-03-27T08:57:44.805Z,5.41
2023-03-27T08:58:44.821Z,5.43
2023-03-27T08:59:44.860Z,5.36
2023-03-27T09:00:44.846Z,5.40
2023-03-27T09:01:44.854Z,5.43
2023-03-27T09:02:44.968Z,5.31
2023-03-27T09:03:44.984Z,5.34
2023-03-27T09:04:44.883Z,5.33
2023-03-27T09:05:44.894Z,5.34
2023-03-27T09:06:44.910Z,5.29
2023-03-27T09:07:44.920Z,5.43
2023-03-27T09:08:44.930Z,5.41
2023-03-27T09:09:44.946Z,5.58
2023-03-27T09:10:44.956Z,5.55
2023-03-27T09:11:44.966Z,5.64
2023-03-27T09:12:44.978Z,5.58
2023-03-27T09:13:44.993Z,5.62
2023-03-27T09:14:45.000Z,5.62
2023-03-27T09:15:45.042Z,5.69
2023-03-27T09:16:46.706Z,5.62
2023-03-27T09:17:45.095Z,5.65
2023-03-27T09:18:45.048Z,5.77
2023-03-27T09:19:45.062Z,5.70
2023-03-27T09:20:45.076Z,5.73
2023-03-27T09:21:45.087Z,5.73
2023-03-27T09:22:45.097Z,5.88
2023-03-27T09:23:45.108Z,5.87
2023-03-27T09:24:45.127Z,5.91
2023-03-27T09:25:45.132Z,5.74
2023-03-27T09:26:45.414Z,5.72
2023-03-27T09:27:45.152Z,5.72
2023-03-27T09:28:46.021Z,5.77
2023-03-27T09:29:45.183Z,5.70
2023-03-27T09:30:45.193Z,5.73
2023-03-27T09:31:45.241Z,5.87
2023-03-27T09:32:45.244Z,5.72
2023-03-27T09:33:45.228Z,5.73
2023-03-27T09:34:45.242Z,5.77
2023-03-27T09:35:45.274Z,5.77
2023-03-27T09:36:45.261Z,5.83
2023-03-27T09:37:45.274Z,5.79
2023-03-27T09:38:45.287Z,5.67
2023-03-27T09:39:45.297Z,5.58
2023-03-27T09:40:45.307Z,5.58
2023-03-27T09:41:45.337Z,5.58
2023-03-27T09:42:45.333Z,5.55
2023-03-27T09:43:45.348Z,5.56
2023-03-27T09:44:45.357Z,5.64
2023-03-27T09:45:45.376Z,5.69
2023-03-27T09:46:45.401Z,5.72
2023-03-27T09:47:45.427Z,5.76
2023-03-27T09:48:45.400Z,5.67
2023-03-27T09:49:45.428Z,5.84
2023-03-27T09:50:45.426Z,5.84
2023-03-27T09:51:45.437Z,5.92
2023-03-27T09:52:45.454Z,5.90
2023-03-27T09:53:45.458Z,5.95
2023-03-27T09:54:45.475Z,5.87
2023-03-27T09:55:45.492Z,5.87
2023-03-27T09:56:45.567Z,5.84
2023-03-27T09:57:45.511Z,5.88
2023-03-27T09:58:45.522Z,5.79
2023-03-27T09:59:45.534Z,5.83
2023-03-27T10:00:45.577Z,5.73
2023-03-27T10:01:45.561Z,5.79
2023-03-27T10:02:45.607Z,5.88
2023-03-27T10:03:45.646Z,5.87
2023-03-27T10:04:45.605Z,5.88
2023-03-27T10:05:45.604Z,5.87
2023-03-27T10:06:45.615Z,5.79
2023-03-27T10:07:45.631Z,5.91
2023-03-27T10:08:45.640Z,5.88
2023-03-27T10:09:45.655Z,5.98
2023-03-27T10:10:45.668Z,5.97
2023-03-27T10:11:45.677Z,5.98
2023-03-27T10:12:45.688Z,5.98
2023-03-27T10:13:45.701Z,6.16
2023-03-27T10:14:45.720Z,6.13
2023-03-27T10:15:45.730Z,6.25
2023-03-27T10:16:45.759Z,6.34
2023-03-27T10:17:45.822Z,6.49
2023-03-27T10:18:45.766Z,6.47
2023-03-27T10:19:45.773Z,6.46
2023-03-27T10:20:45.785Z,6.50
2023-03-27T10:21:45.813Z,6.50
2023-03-27T10:22:45.817Z,6.52
2023-03-27T10:23:45.889Z,6.62
2023-03-27T10:24:46.176Z,6.74
2023-03-27T10:25:45.847Z,6.80
2023-03-27T10:26:45.869Z,6.80
2023-03-27T10:27:45.875Z,6.90
2023-03-27T10:28:45.884Z,6.85
2023-03-27T10:29:45.899Z,6.87
2023-03-27T10:30:45.908Z,6.86
2023-03-27T10:31:45.953Z,6.77
2023-03-27T10:32:45.975Z,6.77
2023-03-27T10:33:45.947Z,6.71
2023-03-27T10:34:45.960Z,6.71
2023-03-27T10:35:46.019Z,6.68
2023-03-27T10:36:45.987Z,6.62
2023-03-27T10:37:49.877Z,6.54
2023-03-27T10:38:46.012Z,6.53
2023-03-27T10:39:46.020Z,6.46
2023-03-27T10:40:46.034Z,6.36
2023-03-27T10:41:46.048Z,6.32
2023-03-27T10:42:46.061Z,6.22
2023-03-27T10:43:46.078Z,6.26
2023-03-27T10:44:46.086Z,6.25
2023-03-27T10:45:46.128Z,6.26
2023-03-27T10:46:46.109Z,6.20
2023-03-27T10:47:46.186Z,6.26
2023-03-27T10:48:46.155Z,6.29
2023-03-27T10:49:46.146Z,6.32
2023-03-27T10:50:46.154Z,6.36
2023-03-27T10:51:47.030Z,6.29
2023-03-27T10:52:46.231Z,6.26
2023-03-27T10:53:46.308Z,6.29
2023-03-27T10:54:46.211Z,6.31
2023-03-27T10:55:46.223Z,6.29
2023-03-27T10:56:46.272Z,6.35
2023-03-27T10:57:46.361Z,6.41
2023-03-27T10:58:46.272Z,6.43
2023-03-27T10:59:46.265Z,6.44
2023-03-27T11:00:46.283Z,6.44
2023-03-27T11:01:46.332Z,6.43
2023-03-27T11:02:46.333Z,6.52
2023-03-27T11:03:46.354Z,6.47
2023-03-27T11:04:46.331Z,6.47
2023-03-27T11:05:46.337Z,6.52
2023-03-27T11:06:46.349Z,6.47
2023-03-27T11:07:46.359Z,6.52
2023-03-27T11:08:46.373Z,6.54
2023-03-27T11:09:46.383Z,6.59
2023-03-27T11:10:46.399Z,6.70
2023-03-27T11:11:46.409Z,6.70
2023-03-27T11:12:46.422Z,6.64
2023-03-27T11:13:46.466Z,6.74
2023-03-27T11:14:46.448Z,6.68
2023-03-27T11:15:46.463Z,6.72
2023-03-27T11:16:46.520Z,6.74
2023-03-27T11:17:46.528Z,6.74
2023-03-27T11:18:46.497Z,6.75
2023-03-27T11:19:46.511Z,6.77
2023-03-27T11:20:46.526Z,6.80
2023-03-27T11:21:46.535Z,6.87
2023-03-27T11:22:46.543Z,6.85
2023-03-27T11:23:46.558Z,7.00
2023-03-27T11:24:46.572Z,6.95
2023-03-27T11:25:46.601Z,6.95
2023-03-27T11:26:46.596Z,7.01
2023-03-27T11:27:46.610Z,6.96
2023-03-27T11:28:46.633Z,6.93
2023-03-27T11:29:46.637Z,6.92
2023-03-27T11:30:46.681Z,6.89
2023-03-27T11:31:46.837Z,6.85
2023-03-27T11:32:46.722Z,6.85
2023-03-27T11:33:46.687Z,6.82
2023-03-27T11:34:46.698Z,6.89
2023-03-27T11:35:46.750Z,6.85
2023-03-27T11:36:46.745Z,6.85
2023-03-27T11:37:46.745Z,6.82
2023-03-27T11:38:46.752Z,6.87
2023-03-27T11:39:46.767Z,6.92
2023-03-27T11:40:46.777Z,6.80
2023-03-27T11:41:46.789Z,6.78
2023-03-27T11:42:46.805Z,6.75
2023-03-27T11:43:46.817Z,6.77
2023-03-27T11:44:46.827Z,6.68
2023-03-27T11:45:46.843Z,6.64
2023-03-27T11:46:46.890Z,6.60
2023-03-27T11:47:46.897Z,6.49
2023-03-27T11:48:46.880Z,6.46
2023-03-27T11:49:46.892Z,6.47
2023-03-27T11:50:46.908Z,6.53
2023-03-27T11:51:46.924Z,6.50
2023-03-27T11:52:46.950Z,6.46
2023-03-27T11:53:46.959Z,6.53
2023-03-27T11:54:46.962Z,6.52
2023-03-27T11:55:46.969Z,6.50
2023-03-27T11:56:47.038Z,6.49
2023-03-27T11:57:46.990Z,6.57
2023-03-27T11:58:47.003Z,6.60
2023-03-27T11:59:47.014Z,6.64
2023-03-27T12:00:47.027Z,6.68
2023-03-27T12:01:47.067Z,6.68
2023-03-27T12:02:47.162Z,6.75
2023-03-27T12:03:47.123Z,6.77
2023-03-27T12:04:47.076Z,6.85
2023-03-27T12:05:47.117Z,7.01
2023-03-27T12:06:47.100Z,7.11
2023-03-27T12:07:48.122Z,7.26
2023-03-27T12:08:47.131Z,7.33
2023-03-27T12:09:47.138Z,7.43
2023-03-27T12:10:47.168Z,7.46
2023-03-27T12:11:47.167Z,7.53
2023-03-27T12:12:47.186Z,7.64
2023-03-27T12:13:49.980Z,7.64
2023-03-27T12:14:47.196Z,7.67
2023-03-27T12:15:47.212Z,7.58
2023-03-27T12:16:47.254Z,7.47
2023-03-27T12:17:47.281Z,7.46
2023-03-27T12:18:59.480Z,7.39
2023-03-27T12:19:47.265Z,7.26
2023-03-27T12:20:52.909Z,7.10
2023-03-27T12:21:47.287Z,7.14
2023-03-27T12:22:47.307Z,7.10
2023-03-27T12:23:47.314Z,7.11
2023-03-27T12:24:58.940Z,7.01
2023-03-27T12:25:47.342Z,6.89
2023-03-27T12:26:47.362Z,6.89
2023-03-27T12:27:47.418Z,6.78
2023-03-27T12:28:47.382Z,6.78
2023-03-27T12:29:47.398Z,6.56
2023-03-27T12:30:47.403Z,6.57
2023-03-27T12:31:47.470Z,6.52
2023-03-27T12:32:47.460Z,6.53
2023-03-27T12:33:47.443Z,6.50
2023-03-27T12:34:47.451Z,6.54
2023-03-27T12:35:47.524Z,6.46
2023-03-27T12:36:47.474Z,6.57
2023-03-27T12:37:47.493Z,6.62
2023-03-27T12:38:47.501Z,6.67
2023-03-27T12:39:47.510Z,6.71
2023-03-27T12:40:47.523Z,6.70
2023-03-27T12:41:47.539Z,6.74
2023-03-27T12:42:47.548Z,6.78
2023-03-27T12:43:47.563Z,6.83
2023-03-27T12:44:47.572Z,6.95
2023-03-27T12:45:53.407Z,7.01
2023-03-27T12:46:47.641Z,7.08
2023-03-27T12:47:47.647Z,7.14
2023-03-27T12:48:47.618Z,7.22
2023-03-27T12:49:48.418Z,7.21
2023-03-27T12:50:47.644Z,7.28
2023-03-27T12:51:47.683Z,7.37
2023-03-27T12:52:47.675Z,7.41
2023-03-27T12:53:47.684Z,7.46
2023-03-27T12:54:47.695Z,7.51
2023-03-27T12:55:47.708Z,7.51
2023-03-27T12:56:47.787Z,7.48
2023-03-27T12:57:47.851Z,7.69
2023-03-27T12:58:47.786Z,7.67
2023-03-27T12:59:47.763Z,7.74
2023-03-27T13:00:47.772Z,7.69
2023-03-27T13:01:52.337Z,7.80
2023-03-27T13:02:47.821Z,7.78
2023-03-27T13:03:47.917Z,7.77
2023-03-27T13:04:47.837Z,7.77
2023-03-27T13:05:47.849Z,7.70
2023-03-27T13:06:47.855Z,7.66
2023-03-27T13:07:47.874Z,7.55
2023-03-27T13:08:47.885Z,7.48
2023-03-27T13:09:47.892Z,7.28
2023-03-27T13:10:47.908Z,7.15
2023-03-27T13:11:47.947Z,7.13
2023-03-27T13:12:47.946Z,7.05
2023-03-27T13:13:47.947Z,7.03
2023-03-27T13:14:47.982Z,6.93
2023-03-27T13:15:48.018Z,6.87
2023-03-27T13:16:47.985Z,6.85
2023-03-27T13:17:48.038Z,6.78
2023-03-27T13:18:48.769Z,6.80
2023-03-27T13:19:48.026Z,6.75